sensor_id;sensor_type;location;lat;lon;timestamp;temperature;humidity
9885;DHT22;4981;50.966;4.842;2023-04-06T07:54:28;7.70;1.00
9885;DHT22;4981;50.966;4.842;2023-04-06T07:59:26;7.70;1.00
9885;DHT22;4981;50.966;4.842;2023-04-06T08:01:53;7.50;1.00
9885;DHT22;4981;50.966;4.842;2023-04-06T08:06:48;7.80;1.00
9885;DHT22;4981;50.966;4.842;2023-04-06T08:09:15;7.80;1.00
9885;DHT22;4981;50.966;4.842;2023-04-06T08:11:43;7.70;1.00
9885;DHT22;4981;50.966;4.842;2023-04-06T08:14:11;7.60;1.00
9885;DHT22;4981;50.966;4.842;2023-04-06T08:16:40;7.80;1.00
9885;DHT22;4981;50.966;4.842;2023-04-06T08:21:36;7.90;1.00
9885;DHT22;4981;50.966;4.842;2023-04-06T08:24:05;8.10;1.00
9885;DHT22;4981;50.966;4.842;2023-04-06T08:26:32;7.90;1.00
9885;DHT22;4981;50.966;4.842;2023-04-06T08:29:00;7.90;1.00
9885;DHT22;4981;50.966;4.842;2023-04-06T08:31:29;7.90;1.00
9885;DHT22;4981;50.966;4.842;2023-04-06T08:33:58;8.30;1.00
9885;DHT22;4981;50.966;4.842;2023-04-06T08:36:26;8.10;1.00
9885;DHT22;4981;50.966;4.842;2023-04-06T08:38:53;8.10;1.00
9885;DHT22;4981;50.966;4.842;2023-04-06T08:41:21;8.10;1.00
9885;DHT22;4981;50.966;4.842;2023-04-06T08:43:49;8.10;1.00
9885;DHT22;4981;50.966;4.842;2023-04-06T08:46:21;8.20;1.00
9885;DHT22;4981;50.966;4.842;2023-04-06T08:48:55;8.30;1.00
9885;DHT22;4981;50.966;4.842;2023-04-06T08:51:24;8.40;1.00
9885;DHT22;4981;50.966;4.842;2023-04-06T08:53:52;8.20;1.00
9885;DHT22;4981;50.966;4.842;2023-04-06T08:56:22;8.50;1.00
9885;DHT22;4981;50.966;4.842;2023-04-06T08:58:50;8.50;1.00
9885;DHT22;4981;50.966;4.842;2023-04-06T09:01:20;8.40;1.00
9885;DHT22;4981;50.966;4.842;2023-04-06T09:03:50;8.20;1.00
9885;DHT22;4981;50.966;4.842;2023-04-06T09:06:18;8.50;1.00
9885;DHT22;4981;50.966;4.842;2023-04-06T09:08:47;8.50;1.00
9885;DHT22;4981;50.966;4.842;2023-04-06T09:11:15;8.40;1.00
9885;DHT22;4981;50.966;4.842;2023-04-06T09:13:47;8.60;1.00
9885;DHT22;4981;50.966;4.842;2023-04-06T09:16:15;8.30;1.00
9885;DHT22;4981;50.966;4.842;2023-04-06T09:18:42;8.30;1.00
9885;DHT22;4981;50.966;4.842;2023-04-06T09:21:10;8.60;1.00
9885;DHT22;4981;50.966;4.842;2023-04-06T09:23:38;8.70;1.00
9885;DHT22;4981;50.966;4.842;2023-04-06T09:38:37;8.30;1.00
9885;DHT22;4981;50.966;4.842;2023-04-06T09:41:06;8.50;1.00
9885;DHT22;4981;50.966;4.842;2023-04-06T10:40:49;8.90;1.00
9885;DHT22;4981;50.966;4.842;2023-04-06T10:43:19;8.80;1.00
9885;DHT22;4981;50.966;4.842;2023-04-06T10:45:55;8.80;1.00
9885;DHT22;4981;50.966;4.842;2023-04-06T10:48:24;9.00;1.00
9885;DHT22;4981;50.966;4.842;2023-04-06T10:50:54;8.70;1.00
9885;DHT22;4981;50.966;4.842;2023-04-06T10:55:52;8.90;1.00
9885;DHT22;4981;50.966;4.842;2023-04-06T10:58:20;9.30;1.00
9885;DHT22;4981;50.966;4.842;2023-04-06T11:00:48;9.60;1.00
9885;DHT22;4981;50.966;4.842;2023-04-06T11:03:16;9.40;1.00
9885;DHT22;4981;50.966;4.842;2023-04-06T11:05:46;9.40;1.00
9885;DHT22;4981;50.966;4.842;2023-04-06T11:08:24;9.00;1.00
9885;DHT22;4981;50.966;4.842;2023-04-06T11:10:52;9.10;1.00
9885;DHT22;4981;50.966;4.842;2023-04-06T11:13:19;9.00;1.00
9885;DHT22;4981;50.966;4.842;2023-04-06T11:18:17;9.20;1.00
9885;DHT22;4981;50.966;4.842;2023-04-06T11:20:48;9.20;1.00
9885;DHT22;4981;50.966;4.842;2023-04-06T11:25:51;8.90;1.00
9885;DHT22;4981;50.966;4.842;2023-04-06T11:30:47;9.10;1.00
9885;DHT22;4981;50.966;4.842;2023-04-06T11:35:49;9.30;1.00
9885;DHT22;4981;50.966;4.842;2023-04-06T11:38:18;9.80;1.00
9885;DHT22;4981;50.966;4.842;2023-04-06T11:40:46;9.60;1.00
9885;DHT22;4981;50.966;4.842;2023-04-06T11:45:42;9.30;1.00
9885;DHT22;4981;50.966;4.842;2023-04-06T11:48:19;9.50;1.00
9885;DHT22;4981;50.966;4.842;2023-04-06T11:50:55;10.30;1.00
9885;DHT22;4981;50.966;4.842;2023-04-06T11:53:22;8.90;1.00
9885;DHT22;4981;50.966;4.842;2023-04-06T11:55:50;9.10;1.00
9885;DHT22;4981;50.966;4.842;2023-04-06T11:58:17;9.00;1.00
9885;DHT22;4981;50.966;4.842;2023-04-06T12:05:41;9.10;1.00
9885;DHT22;4981;50.966;4.842;2023-04-06T12:08:09;9.00;1.00
9885;DHT22;4981;50.966;4.842;2023-04-06T12:10:37;9.20;1.00
9885;DHT22;4981;50.966;4.842;2023-04-06T12:13:04;9.20;1.00
9885;DHT22;4981;50.966;4.842;2023-04-06T12:15:32;9.00;1.00
9885;DHT22;4981;50.966;4.842;2023-04-06T12:17:59;9.30;1.00
9885;DHT22;4981;50.966;4.842;2023-04-06T12:20:26;9.10;1.00
9885;DHT22;4981;50.966;4.842;2023-04-06T12:22:54;9.20;1.00
9885;DHT22;4981;50.966;4.842;2023-04-06T12:25:23;9.00;1.00
9885;DHT22;4981;50.966;4.842;2023-04-06T12:27:50;9.00;1.00
9885;DHT22;4981;50.966;4.842;2023-04-06T12:30:18;9.30;1.00
9885;DHT22;4981;50.966;4.842;2023-04-06T12:32:45;9.20;1.00
9885;DHT22;4981;50.966;4.842;2023-04-06T12:37:41;9.30;1.00
9885;DHT22;4981;50.966;4.842;2023-04-06T12:40:10;9.40;1.00
9885;DHT22;4981;50.966;4.842;2023-04-06T12:45:08;9.60;1.00
9885;DHT22;4981;50.966;4.842;2023-04-06T12:47:36;9.40;1.00
9885;DHT22;4981;50.966;4.842;2023-04-06T12:52:32;9.20;1.00
9885;DHT22;4981;50.966;4.842;2023-04-06T12:55:01;9.30;1.00
9885;DHT22;4981;50.966;4.842;2023-04-06T13:04:52;9.60;1.00
9885;DHT22;4981;50.966;4.842;2023-04-06T13:07:20;9.40;1.00
9885;DHT22;4981;50.966;4.842;2023-04-06T13:09:47;9.50;1.00
9885;DHT22;4981;50.966;4.842;2023-04-06T13:12:15;9.20;1.00
9885;DHT22;4981;50.966;4.842;2023-04-06T13:14:43;9.60;1.00
9885;DHT22;4981;50.966;4.842;2023-04-06T13:24:37;9.20;1.00
9885;DHT22;4981;50.966;4.842;2023-04-06T13:27:04;9.10;1.00
9885;DHT22;4981;50.966;4.842;2023-04-06T13:29:32;9.20;1.00
9885;DHT22;4981;50.966;4.842;2023-04-06T13:34:29;8.90;1.00
9885;DHT22;4981;50.966;4.842;2023-04-06T13:41:53;8.80;1.00
9885;DHT22;4981;50.966;4.842;2023-04-06T13:44:20;9.00;1.00
9885;DHT22;4981;50.966;4.842;2023-04-06T14:01:38;8.70;1.00
9885;DHT22;4981;50.966;4.842;2023-04-06T14:04:05;8.70;1.00
9885;DHT22;4981;50.966;4.842;2023-04-06T14:06:32;8.60;1.00
9885;DHT22;4981;50.966;4.842;2023-04-06T14:09:01;9.00;1.00
9885;DHT22;4981;50.966;4.842;2023-04-06T14:13:57;8.70;1.00
9885;DHT22;4981;50.966;4.842;2023-04-06T14:16:24;8.70;1.00
9885;DHT22;4981;50.966;4.842;2023-04-06T14:18:52;8.60;1.00
9885;DHT22;4981;50.966;4.842;2023-04-06T14:21:19;9.10;1.00
9885;DHT22;4981;50.966;4.842;2023-04-06T14:23:46;8.90;1.00
9885;DHT22;4981;50.966;4.842;2023-04-06T14:26:15;8.90;1.00
9885;DHT22;4981;50.966;4.842;2023-04-06T14:31:12;8.70;1.00
9885;DHT22;4981;50.966;4.842;2023-04-06T14:33:40;8.60;1.00
9885;DHT22;4981;50.966;4.842;2023-04-06T14:36:09;8.80;1.00
9885;DHT22;4981;50.966;4.842;2023-04-06T14:38:36;8.40;1.00
9885;DHT22;4981;50.966;4.842;2023-04-06T14:41:05;8.90;1.00
9885;DHT22;4981;50.966;4.842;2023-04-06T14:43:34;9.40;1.00
9885;DHT22;4981;50.966;4.842;2023-04-06T14:46:01;8.90;1.00
9885;DHT22;4981;50.966;4.842;2023-04-06T14:48:28;8.90;1.00
9885;DHT22;4981;50.966;4.842;2023-04-06T14:50:56;8.80;1.00
9885;DHT22;4981;50.966;4.842;2023-04-06T14:53:23;8.60;1.00
9885;DHT22;4981;50.966;4.842;2023-04-06T14:58:19;9.00;1.00
9885;DHT22;4981;50.966;4.842;2023-04-06T15:03:16;8.70;1.00
9885;DHT22;4981;50.966;4.842;2023-04-06T15:05:43;8.90;1.00
9885;DHT22;4981;50.966;4.842;2023-04-06T15:08:11;8.80;1.00
9885;DHT22;4981;50.966;4.842;2023-04-06T15:10:40;8.90;1.00
9885;DHT22;4981;50.966;4.842;2023-04-06T15:13:07;8.70;1.00
9885;DHT22;4981;50.966;4.842;2023-04-06T15:18:05;8.60;1.00
9885;DHT22;4981;50.966;4.842;2023-04-06T15:20:32;8.50;1.00
9885;DHT22;4981;50.966;4.842;2023-04-06T15:23:01;8.80;1.00
9885;DHT22;4981;50.966;4.842;2023-04-06T15:25:29;8.80;1.00
9885;DHT22;4981;50.966;4.842;2023-04-06T15:27:57;8.90;1.00
9885;DHT22;4981;50.966;4.842;2023-04-06T15:30:24;8.90;1.00
9885;DHT22;4981;50.966;4.842;2023-04-06T15:32:53;9.00;1.00
9885;DHT22;4981;50.966;4.842;2023-04-06T15:35:24;8.60;1.00
9885;DHT22;4981;50.966;4.842;2023-04-06T15:37:53;8.90;1.00
9885;DHT22;4981;50.966;4.842;2023-04-06T15:40:21;9.00;1.00
9885;DHT22;4981;50.966;4.842;2023-04-06T15:42:48;8.80;1.00
9885;DHT22;4981;50.966;4.842;2023-04-06T15:45:16;8.10;1.00
9885;DHT22;4981;50.966;4.842;2023-04-06T15:47:44;8.70;1.00
9885;DHT22;4981;50.966;4.842;2023-04-06T15:50:13;8.90;1.00
9885;DHT22;4981;50.966;4.842;2023-04-06T15:55:09;8.90;1.00
9885;DHT22;4981;50.966;4.842;2023-04-06T15:57:36;9.10;1.00
9885;DHT22;4981;50.966;4.842;2023-04-06T16:00:05;9.20;1.00
9885;DHT22;4981;50.966;4.842;2023-04-06T16:02:33;9.10;1.00
9885;DHT22;4981;50.966;4.842;2023-04-06T16:05:00;9.10;1.00
9885;DHT22;4981;50.966;4.842;2023-04-06T16:07:28;9.00;1.00
9885;DHT22;4981;50.966;4.842;2023-04-06T16:09:58;9.20;1.00
9885;DHT22;4981;50.966;4.842;2023-04-06T16:27:15;9.30;1.00
9885;DHT22;4981;50.966;4.842;2023-04-06T16:37:05;9.20;1.00
9885;DHT22;4981;50.966;4.842;2023-04-06T16:46:57;9.30;1.00
9885;DHT22;4981;50.966;4.842;2023-04-06T16:54:20;9.40;1.00
9885;DHT22;4981;50.966;4.842;2023-04-06T16:56:47;9.60;1.00
9885;DHT22;4981;50.966;4.842;2023-04-06T16:59:14;9.40;1.00
9885;DHT22;4981;50.966;4.842;2023-04-06T17:01:43;9.40;1.00
9885;DHT22;4981;50.966;4.842;2023-04-06T17:04:10;9.40;1.00
9885;DHT22;4981;50.966;4.842;2023-04-06T17:09:05;9.40;1.00
9885;DHT22;4981;50.966;4.842;2023-04-06T17:11:32;9.50;1.00
9885;DHT22;4981;50.966;4.842;2023-04-06T17:18:57;9.50;1.00
9885;DHT22;4981;50.966;4.842;2023-04-06T17:28:47;9.40;1.00
9885;DHT22;4981;50.966;4.842;2023-04-06T17:46:04;9.50;1.00
9885;DHT22;4981;50.966;4.842;2023-04-06T17:50:59;9.50;1.00
9885;DHT22;4981;50.966;4.842;2023-04-06T17:53:28;9.50;1.00
9885;DHT22;4981;50.966;4.842;2023-04-06T17:56:01;9.60;1.00
9885;DHT22;4981;50.966;4.842;2023-04-06T17:58:29;9.50;1.00
9885;DHT22;4981;50.966;4.842;2023-04-06T18:01:03;9.40;1.00
9885;DHT22;4981;50.966;4.842;2023-04-06T18:03:31;9.50;1.00
9885;DHT22;4981;50.966;4.842;2023-04-06T18:06:08;9.50;1.00
9885;DHT22;4981;50.966;4.842;2023-04-06T18:08:37;9.30;1.00
9885;DHT22;4981;50.966;4.842;2023-04-06T18:33:17;9.30;1.00
9885;DHT22;4981;50.966;4.842;2023-04-06T18:40:40;9.30;1.00
